Time;durP1;ratioP1;P1;durP2;ratioP2;P2;SDS_P1;SDS_P2;PMS_P1;PMS_P2;Temp;Humidity;BMP_temperature;BMP_pressure;BME280_temperature;BME280_humidity;BME280_pressure;Samples;Min_cycle;Max_cycle;Signal;HPM_P1;HPM_P2
2022/08/20 00:01:00;;;;;;;16.98;12.35;;;17.00;99.90;;;;;;5028038;28;20276;-76
2022/08/20 00:03:45;;;;;;;15.35;13.63;;;17.10;99.90;;;;;;5038937;28;20171;-75
2022/08/20 00:06:15;;;;;;;17.80;13.43;;;17.00;99.90;;;;;;5036624;28;20193;-75
2022/08/20 00:08:41;;;;;;;17.70;13.75;;;17.00;99.90;;;;;;5044824;28;20175;-76
2022/08/20 00:11:10;;;;;;;23.88;14.82;;;17.00;99.90;;;;;;5037990;28;20187;-76
2022/08/20 00:13:45;;;;;;;20.75;16.10;;;16.90;99.90;;;;;;5034302;28;20193;-75
2022/08/20 00:16:12;;;;;;;17.17;14.00;;;16.90;99.90;;;;;;5042902;28;20172;-75
2022/08/20 00:18:38;;;;;;;20.10;16.75;;;16.80;99.90;;;;;;5039925;28;20722;-76
2022/08/20 00:21:07;;;;;;;15.50;13.95;;;16.90;99.90;;;;;;5044323;28;20252;-76
2022/08/20 00:23:36;;;;;;;22.90;15.05;;;16.80;99.90;;;;;;5032750;28;20330;-76
2022/08/20 00:26:01;;;;;;;16.10;12.73;;;16.90;99.90;;;;;;5019988;28;20180;-75
2022/08/20 00:28:27;;;;;;;13.43;12.05;;;16.80;99.90;;;;;;5031186;28;20814;-75
2022/08/20 00:30:53;;;;;;;12.10;10.93;;;16.80;99.90;;;;;;5025727;28;20217;-75
2022/08/20 00:33:21;;;;;;;11.23;10.13;;;16.80;99.90;;;;;;5033682;28;20208;-75
2022/08/20 00:35:51;;;;;;;12.20;10.93;;;16.70;99.90;;;;;;5031426;28;20205;-74
2022/08/20 00:38:17;;;;;;;13.32;11.93;;;16.70;99.90;;;;;;5036299;28;20197;-74
2022/08/20 00:40:47;;;;;;;11.23;10.18;;;16.70;99.90;;;;;;5030667;28;20189;-74
2022/08/20 00:43:37;;;;;;;12.85;10.45;;;16.60;99.90;;;;;;5015191;28;20251;-74
2022/08/20 00:46:26;;;;;;;11.05;9.68;;;16.60;99.90;;;;;;5026574;28;20208;-73
2022/08/20 00:48:54;;;;;;;10.82;9.73;;;16.60;99.90;;;;;;5030400;28;20223;-74
2022/08/20 00:51:41;;;;;;;10.50;9.43;;;16.60;99.90;;;;;;5027916;28;20761;-74
2022/08/20 00:54:09;;;;;;;12.73;8.82;;;16.50;99.90;;;;;;5036592;28;20196;-75
2022/08/20 00:56:36;;;;;;;10.23;9.20;;;16.50;99.90;;;;;;5046961;28;20203;-74
2022/08/20 00:59:10;;;;;;;10.25;9.32;;;16.50;99.90;;;;;;5032800;28;20650;-74
2022/08/20 01:01:37;;;;;;;11.02;8.73;;;16.50;99.90;;;;;;5039260;28;20241;-74
2022/08/20 01:04:04;;;;;;;8.13;7.43;;;16.50;99.90;;;;;;5043194;28;20177;-74
2022/08/20 01:06:30;;;;;;;13.45;12.02;;;16.40;99.90;;;;;;5036110;28;20343;-74
2022/08/20 01:08:57;;;;;;;12.30;10.95;;;16.50;99.90;;;;;;5028584;28;20231;-74
2022/08/20 01:11:32;;;;;;;13.68;10.43;;;16.50;99.90;;;;;;5022998;28;20173;-75
2022/08/20 01:13:59;;;;;;;12.55;10.82;;;16.40;99.90;;;;;;5035502;28;20264;-74
2022/08/20 01:16:30;;;;;;;12.98;10.27;;;16.40;99.90;;;;;;5032523;28;20262;-74
2022/08/20 01:18:57;;;;;;;16.70;11.18;;;16.40;99.90;;;;;;5029695;28;20198;-74
2022/08/20 01:21:30;;;;;;;10.88;9.65;;;16.40;99.90;;;;;;5034414;28;20593;-75
2022/08/20 01:24:14;;;;;;;10.65;9.65;;;16.30;99.90;;;;;;5027737;28;20207;-75
2022/08/20 01:26:43;;;;;;;12.75;10.50;;;16.30;99.90;;;;;;5028289;28;20216;-75
2022/08/20 01:29:17;;;;;;;10.77;9.13;;;16.20;99.90;;;;;;5025230;28;20233;-75
2022/08/20 01:31:44;;;;;;;9.55;8.73;;;16.20;99.90;;;;;;5029019;28;20169;-74
2022/08/20 01:34:12;;;;;;;10.07;9.10;;;16.20;99.90;;;;;;5038489;28;20184;-75
2022/08/20 01:36:40;;;;;;;10.90;9.38;;;16.20;99.90;;;;;;5027397;28;20677;-74
2022/08/20 01:39:08;;;;;;;10.32;9.38;;;16.20;99.90;;;;;;5033612;28;20331;-75
2022/08/20 01:42:12;;;;;;;10.70;8.77;;;16.20;99.90;;;;;;5026308;28;20609;-75
2022/08/20 01:44:39;;;;;;;10.07;8.70;;;16.30;99.90;;;;;;5030795;28;20238;-75
2022/08/20 01:47:16;;;;;;;11.73;10.30;;;16.30;99.90;;;;;;5030887;28;20666;-75
2022/08/20 01:49:46;;;;;;;11.65;10.50;;;16.20;99.90;;;;;;5033906;28;20216;-75
2022/08/20 01:52:19;;;;;;;12.57;9.75;;;16.20;99.90;;;;;;5031889;28;20176;-75
2022/08/20 01:54:45;;;;;;;11.55;10.35;;;16.20;99.90;;;;;;5046375;28;20173;-75
2022/08/20 01:57:17;;;;;;;14.32;10.48;;;16.20;99.90;;;;;;5039171;28;20671;-74
2022/08/20 01:59:43;;;;;;;13.60;11.35;;;16.30;99.90;;;;;;5036302;28;20278;-75
2022/08/20 02:02:11;;;;;;;14.30;11.75;;;16.20;99.90;;;;;;5037152;28;20185;-75
2022/08/20 02:04:37;;;;;;;15.93;11.85;;;16.20;99.90;;;;;;5042271;28;20658;-75
2022/08/20 02:07:06;;;;;;;11.43;10.10;;;16.20;99.90;;;;;;5043633;28;20227;-75
2022/08/20 02:09:35;;;;;;;11.55;10.48;;;16.20;99.90;;;;;;5044158;28;20197;-75
2022/08/20 02:12:03;;;;;;;14.32;12.35;;;16.20;99.90;;;;;;5030824;28;20168;-75
2022/08/20 02:14:29;;;;;;;11.10;9.85;;;16.30;99.90;;;;;;5044956;28;20173;-76
2022/08/20 02:16:57;;;;;;;14.70;11.80;;;16.20;99.90;;;;;;5031563;28;20545;-75
2022/08/20 02:19:27;;;;;;;15.38;12.38;;;16.20;99.90;;;;;;5044517;28;20259;-75
2022/08/20 02:21:57;;;;;;;12.98;10.80;;;16.30;99.90;;;;;;5043819;28;20181;-74
2022/08/20 02:24:23;;;;;;;10.65;9.55;;;16.20;99.90;;;;;;5043463;28;20184;-73
2022/08/20 02:26:51;;;;;;;12.05;10.82;;;16.20;99.90;;;;;;5038510;28;20200;-74
2022/08/20 02:29:17;;;;;;;14.00;11.73;;;16.20;99.90;;;;;;5027644;28;20247;-73
2022/08/20 02:31:44;;;;;;;11.43;10.23;;;16.30;99.90;;;;;;5028879;28;20180;-73
2022/08/20 02:34:12;;;;;;;10.15;8.90;;;16.20;99.90;;;;;;5026144;28;20227;-75
2022/08/20 02:36:38;;;;;;;11.57;10.32;;;16.20;99.90;;;;;;5039424;28;20188;-74
2022/08/20 02:39:09;;;;;;;13.90;11.65;;;16.30;99.90;;;;;;5042024;28;20232;-73
2022/08/20 02:41:37;;;;;;;16.40;12.15;;;16.30;99.90;;;;;;5041103;28;20180;-75
2022/08/20 02:44:04;;;;;;;12.15;10.40;;;16.40;99.90;;;;;;5040728;28;20642;-73
2022/08/20 02:46:30;;;;;;;10.65;9.65;;;16.30;99.90;;;;;;5042369;28;20210;-73
2022/08/20 02:48:57;;;;;;;10.52;9.48;;;16.20;99.90;;;;;;5042472;28;20325;-74
2022/08/20 02:51:23;;;;;;;12.25;10.18;;;16.30;99.90;;;;;;5031588;28;20936;-74
2022/08/20 02:53:49;;;;;;;10.73;9.00;;;16.40;99.90;;;;;;5033932;28;20176;-73
2022/08/20 02:56:14;;;;;;;14.00;11.48;;;16.30;99.90;;;;;;5034804;28;20260;-74
2022/08/20 02:58:40;;;;;;;10.80;9.75;;;16.50;99.90;;;;;;5047343;28;20260;-75
2022/08/20 03:01:11;;;;;;;10.82;9.38;;;16.50;99.90;;;;;;5032901;28;20172;-74
2022/08/20 03:03:37;;;;;;;10.40;9.43;;;16.40;99.90;;;;;;5032533;28;20168;-75
2022/08/20 03:06:04;;;;;;;9.32;8.43;;;16.40;99.90;;;;;;5041303;28;20297;-74
2022/08/20 03:08:30;;;;;;;12.20;10.48;;;16.40;99.90;;;;;;5035231;28;20196;-76
2022/08/20 03:10:56;;;;;;;11.30;10.07;;;16.50;99.90;;;;;;5042032;28;20191;-74
2022/08/20 03:13:22;;;;;;;13.30;10.68;;;16.50;99.90;;;;;;5032320;28;20268;-73
2022/08/20 03:15:55;;;;;;;16.35;12.55;;;16.50;99.90;;;;;;5040047;28;20674;-73
2022/08/20 03:18:23;;;;;;;13.23;11.02;;;16.60;99.90;;;;;;5048569;28;20716;-73
2022/08/20 03:20:49;;;;;;;19.00;13.40;;;16.60;99.90;;;;;;5042205;28;20591;-74
2022/08/20 03:23:16;;;;;;;14.27;12.15;;;16.60;99.90;;;;;;5039999;28;20698;-75
2022/08/20 03:25:42;;;;;;;17.20;11.85;;;16.60;99.90;;;;;;5035674;28;20184;-73
2022/08/20 03:28:08;;;;;;;19.23;11.85;;;16.60;99.90;;;;;;5036968;28;20208;-74
2022/08/20 03:30:34;;;;;;;13.45;10.32;;;16.50;99.90;;;;;;5043682;28;20212;-74
2022/08/20 03:33:00;;;;;;;10.75;9.77;;;16.50;99.90;;;;;;5043372;28;20631;-74
2022/08/20 03:35:28;;;;;;;16.92;12.50;;;16.50;99.90;;;;;;5030840;28;20181;-73
2022/08/20 03:37:54;;;;;;;11.90;10.65;;;16.60;99.90;;;;;;5042113;28;20206;-74
2022/08/20 03:40:27;;;;;;;14.30;11.63;;;16.60;99.90;;;;;;5044052;28;20167;-73
2022/08/20 03:42:52;;;;;;;11.15;10.02;;;16.60;99.90;;;;;;5038301;28;20269;-74
2022/08/20 03:45:20;;;;;;;16.60;11.45;;;16.50;99.90;;;;;;5038891;28;20215;-74
2022/08/20 03:47:46;;;;;;;18.92;12.35;;;16.50;99.90;;;;;;5044899;28;20740;-74
2022/08/20 03:50:12;;;;;;;11.35;9.60;;;16.40;99.90;;;;;;5042941;28;20227;-74
2022/08/20 03:52:38;;;;;;;12.45;10.73;;;16.40;99.90;;;;;;5038777;28;20771;-74
2022/08/20 03:55:07;;;;;;;19.02;13.48;;;16.30;99.90;;;;;;5040173;28;20180;-75
2022/08/20 03:57:33;;;;;;;21.45;14.57;;;16.40;99.90;;;;;;5045923;28;20534;-74
2022/08/20 03:59:59;;;;;;;16.15;13.15;;;16.40;99.90;;;;;;5030114;28;20687;-75
2022/08/20 04:02:24;;;;;;;14.77;12.63;;;16.30;99.90;;;;;;5046976;28;20222;-73
2022/08/20 04:04:50;;;;;;;18.92;13.93;;;16.40;99.90;;;;;;5041414;28;20722;-74
2022/08/20 04:07:24;;;;;;;18.70;14.23;;;16.40;99.90;;;;;;5039776;28;20223;-74
2022/08/20 04:09:54;;;;;;;21.38;14.70;;;16.40;99.90;;;;;;5041256;28;20205;-74
2022/08/20 04:12:20;;;;;;;18.33;12.73;;;16.40;99.90;;;;;;5041023;28;20188;-74
2022/08/20 04:14:46;;;;;;;14.02;11.50;;;16.30;99.90;;;;;;5047213;28;20183;-75
2022/08/20 04:17:13;;;;;;;23.50;14.45;;;16.30;99.90;;;;;;5039443;28;20187;-75
2022/08/20 04:19:39;;;;;;;26.27;15.82;;;16.40;99.90;;;;;;5044898;28;20191;-75
2022/08/20 04:22:06;;;;;;;23.63;15.40;;;16.50;99.90;;;;;;5039788;28;20180;-75
2022/08/20 04:24:33;;;;;;;29.92;16.75;;;16.50;99.90;;;;;;5040101;28;20168;-75
2022/08/20 04:27:01;;;;;;;26.65;15.60;;;16.50;99.90;;;;;;5038910;28;20234;-76
2022/08/20 04:29:28;;;;;;;25.33;16.60;;;16.50;99.90;;;;;;5039735;28;20596;-74
2022/08/20 04:31:54;;;;;;;24.23;16.45;;;16.40;99.90;;;;;;5046902;28;20178;-74
2022/08/20 04:34:20;;;;;;;24.45;16.75;;;16.50;99.90;;;;;;5035540;28;20180;-74
2022/08/20 04:36:47;;;;;;;27.65;16.70;;;16.50;99.90;;;;;;5035889;28;20201;-74
2022/08/20 04:39:16;;;;;;;20.58;13.13;;;16.50;99.90;;;;;;5030748;28;20532;-73
2022/08/20 04:41:42;;;;;;;19.95;14.88;;;16.40;99.90;;;;;;5030854;28;20235;-73
2022/08/20 04:44:09;;;;;;;20.30;13.70;;;16.40;99.90;;;;;;5017758;28;20219;-73
2022/08/20 04:46:37;;;;;;;22.75;13.63;;;16.50;99.90;;;;;;5024151;28;20228;-73
2022/08/20 04:49:03;;;;;;;19.08;13.07;;;16.50;99.90;;;;;;5019802;28;20307;-73
2022/08/20 04:51:30;;;;;;;20.17;14.80;;;16.50;99.90;;;;;;5023006;28;20227;-75
2022/08/20 04:53:56;;;;;;;26.35;15.70;;;16.60;99.90;;;;;;5019293;28;20188;-77
2022/08/20 04:56:25;;;;;;;20.30;14.05;;;16.60;99.90;;;;;;5030979;28;20200;-76
2022/08/20 04:58:53;;;;;;;22.02;15.10;;;16.50;99.90;;;;;;5028738;28;20176;-76
2022/08/20 05:01:19;;;;;;;20.17;13.02;;;16.60;99.90;;;;;;5029006;28;20169;-78
2022/08/20 05:03:46;;;;;;;19.95;14.27;;;16.60;99.90;;;;;;5022669;28;20656;-77
2022/08/20 05:06:12;;;;;;;18.58;13.35;;;16.60;99.90;;;;;;5018159;28;20694;-77
2022/08/20 05:08:39;;;;;;;17.85;13.85;;;16.60;99.90;;;;;;5017567;28;20181;-77
2022/08/20 05:11:08;;;;;;;21.20;13.50;;;16.70;99.90;;;;;;5026164;28;20617;-76
2022/08/20 05:13:34;;;;;;;27.85;17.35;;;16.70;99.90;;;;;;5020703;28;20195;-77
2022/08/20 05:16:00;;;;;;;19.77;15.27;;;16.80;99.90;;;;;;5036545;28;20171;-77
2022/08/20 05:18:27;;;;;;;22.58;14.82;;;16.80;99.90;;;;;;5026683;28;20212;-77
2022/08/20 05:20:53;;;;;;;24.23;15.90;;;16.70;99.90;;;;;;5029475;28;20227;-77
2022/08/20 05:23:19;;;;;;;22.55;15.43;;;16.80;99.90;;;;;;5031079;28;20250;-78
2022/08/20 05:25:50;;;;;;;22.80;15.48;;;16.80;99.90;;;;;;5043056;28;20192;-77
2022/08/20 05:28:20;;;;;;;21.23;13.50;;;16.80;99.90;;;;;;5035948;28;20565;-80
2022/08/20 05:30:47;;;;;;;27.55;16.67;;;16.80;99.90;;;;;;5031979;28;20209;-78
2022/08/20 05:33:15;;;;;;;26.33;15.35;;;16.80;99.90;;;;;;5027221;28;20211;-78
2022/08/20 05:35:41;;;;;;;28.02;16.02;;;16.90;99.90;;;;;;5034998;28;20259;-77
2022/08/20 05:38:11;;;;;;;26.80;15.95;;;16.80;99.90;;;;;;5039734;28;20624;-78
2022/08/20 05:40:39;;;;;;;29.10;16.98;;;16.80;99.90;;;;;;5044728;28;20180;-77
2022/08/20 05:43:04;;;;;;;32.80;18.52;;;16.90;99.90;;;;;;5037251;28;20286;-77
2022/08/20 05:45:32;;;;;;;26.42;16.75;;;16.90;99.90;;;;;;5042215;28;20213;-77
2022/08/20 05:47:58;;;;;;;28.55;17.20;;;17.00;99.90;;;;;;5042998;28;20207;-77
2022/08/20 05:50:24;;;;;;;24.75;17.10;;;17.00;99.90;;;;;;5045522;28;20199;-78
2022/08/20 05:52:50;;;;;;;25.67;16.67;;;17.20;99.90;;;;;;5043126;28;20164;-77
2022/08/20 05:55:16;;;;;;;24.88;16.95;;;17.30;99.90;;;;;;5042454;28;20545;-77
2022/08/20 05:57:42;;;;;;;27.25;16.98;;;17.30;99.90;;;;;;5039413;28;20193;-77
2022/08/20 06:00:10;;;;;;;32.25;18.17;;;17.40;99.90;;;;;;5026654;28;20819;-77
2022/08/20 06:05:20;;;;;;;23.40;15.75;;;17.50;99.90;;;;;;5033015;28;20575;-77
2022/08/20 06:07:46;;;;;;;22.77;15.98;;;17.70;99.90;;;;;;5036817;28;20196;-77
2022/08/20 06:10:12;;;;;;;24.20;16.40;;;17.70;99.90;;;;;;5038381;28;20207;-77
2022/08/20 06:12:38;;;;;;;21.70;15.45;;;17.80;99.90;;;;;;5026460;28;20224;-77
2022/08/20 06:15:05;;;;;;;17.25;15.35;;;18.00;99.90;;;;;;5036102;28;20269;-78
2022/08/20 06:17:35;;;;;;;16.13;13.45;;;18.10;99.90;;;;;;5038883;28;20209;-78
2022/08/20 06:20:07;;;;;;;14.25;12.60;;;18.20;99.90;;;;;;5021244;28;20196;-78
2022/08/20 06:22:34;;;;;;;13.57;12.23;;;18.20;99.90;;;;;;5020717;28;20290;-77
2022/08/20 06:25:01;;;;;;;14.95;12.88;;;18.20;99.90;;;;;;5032912;28;20177;-78
2022/08/20 06:27:27;;;;;;;13.45;12.10;;;18.30;99.90;;;;;;5036358;28;20204;-78
2022/08/20 06:29:53;;;;;;;13.48;12.20;;;18.20;99.90;;;;;;5040951;28;20262;-77
2022/08/20 06:32:23;;;;;;;14.73;13.18;;;18.10;99.90;;;;;;5039574;28;20246;-78
2022/08/20 06:34:50;;;;;;;14.05;12.63;;;18.20;99.90;;;;;;5033931;28;20214;-78
2022/08/20 06:37:22;;;;;;;14.43;13.02;;;18.20;99.90;;;;;;5033633;28;20258;-77
2022/08/20 06:39:48;;;;;;;13.18;12.05;;;18.20;99.90;;;;;;5024046;28;20182;-77
2022/08/20 06:42:14;;;;;;;14.25;12.85;;;18.10;99.90;;;;;;5036954;28;20177;-78
2022/08/20 06:44:40;;;;;;;15.15;13.05;;;18.20;99.90;;;;;;5038822;28;20192;-79
2022/08/20 06:47:05;;;;;;;12.93;11.73;;;18.20;99.90;;;;;;5041494;28;20850;-79
2022/08/20 06:49:35;;;;;;;12.98;11.45;;;18.20;99.90;;;;;;5040671;28;20207;-80
2022/08/20 06:52:04;;;;;;;12.50;11.30;;;18.30;99.90;;;;;;5030936;28;20226;-81
2022/08/20 06:54:30;;;;;;;10.95;10.02;;;18.30;99.90;;;;;;5047257;28;20173;-83
2022/08/20 06:56:55;;;;;;;13.00;11.90;;;18.30;99.90;;;;;;5041490;28;20204;-82
2022/08/20 06:59:21;;;;;;;13.88;12.38;;;18.40;99.90;;;;;;5031795;28;20180;-83
2022/08/20 07:01:49;;;;;;;13.23;11.70;;;18.40;99.90;;;;;;5038075;28;20263;-82
2022/08/20 07:04:15;;;;;;;12.02;11.02;;;18.40;99.90;;;;;;5032152;28;20186;-83
2022/08/20 07:06:42;;;;;;;12.18;11.07;;;18.40;99.90;;;;;;5030612;28;20196;-83
2022/08/20 07:09:08;;;;;;;13.27;11.98;;;18.40;99.90;;;;;;5034018;28;20189;-83
2022/08/20 07:11:34;;;;;;;13.75;12.52;;;18.50;99.90;;;;;;5030539;28;20973;-82
2022/08/20 07:14:04;;;;;;;14.10;12.68;;;18.50;99.90;;;;;;5023214;28;20188;-84
2022/08/20 07:16:29;;;;;;;11.27;10.35;;;18.70;99.90;;;;;;5030800;28;20199;-83
2022/08/20 07:18:55;;;;;;;13.27;12.07;;;18.70;99.90;;;;;;5040515;28;20219;-83
2022/08/20 07:21:21;;;;;;;13.82;12.48;;;18.80;99.90;;;;;;5039191;28;20168;-83
2022/08/20 07:23:48;;;;;;;11.50;10.40;;;19.00;99.90;;;;;;5039723;28;20187;-83
2022/08/20 07:26:14;;;;;;;9.85;8.85;;;19.10;99.90;;;;;;5036821;28;20174;-83
2022/08/20 07:28:40;;;;;;;10.48;9.43;;;19.10;99.90;;;;;;5033117;28;20168;-84
2022/08/20 07:33:49;;;;;;;11.02;10.02;;;19.30;99.90;;;;;;5035682;28;20214;-84
2022/08/20 07:36:15;;;;;;;11.20;9.48;;;19.50;99.90;;;;;;5035749;28;20209;-84
2022/08/20 07:38:44;;;;;;;10.00;9.20;;;19.60;99.90;;;;;;5033502;28;20169;-81
2022/08/20 07:41:12;;;;;;;11.70;10.60;;;19.70;99.90;;;;;;5038675;28;20180;-82
2022/08/20 07:43:38;;;;;;;9.45;8.65;;;19.80;99.90;;;;;;5035150;28;20255;-79
2022/08/20 07:46:07;;;;;;;11.48;10.57;;;19.80;99.90;;;;;;5035946;28;20263;-81
2022/08/20 07:48:38;;;;;;;11.70;10.80;;;19.80;99.90;;;;;;5033500;28;20176;-81
2022/08/20 07:51:05;;;;;;;12.55;11.45;;;19.70;99.90;;;;;;5039247;28;20245;-79
2022/08/20 07:53:33;;;;;;;12.75;11.68;;;19.50;99.90;;;;;;5028347;28;20256;-79
2022/08/20 07:56:02;;;;;;;10.88;9.90;;;19.50;99.90;;;;;;5026428;28;20677;-79
2022/08/20 07:58:27;;;;;;;11.02;10.13;;;19.20;99.90;;;;;;5024324;28;20200;-79
2022/08/20 08:00:53;;;;;;;12.23;11.15;;;19.10;99.90;;;;;;5030611;28;20180;-79
2022/08/20 08:03:19;;;;;;;13.20;12.10;;;19.10;99.90;;;;;;5031714;28;20676;-79
2022/08/20 08:05:47;;;;;;;12.32;11.32;;;19.00;99.90;;;;;;5025657;28;20713;-79
2022/08/20 08:08:17;;;;;;;16.92;14.70;;;18.80;99.90;;;;;;5022132;28;20209;-79
2022/08/20 08:10:46;;;;;;;14.32;13.00;;;18.80;99.90;;;;;;5025412;28;20220;-78
2022/08/20 08:13:13;;;;;;;15.43;14.02;;;18.70;99.90;;;;;;5028909;28;20184;-78
2022/08/20 08:15:42;;;;;;;14.73;13.43;;;18.70;99.90;;;;;;5030099;28;20169;-79
2022/08/20 08:18:15;;;;;;;16.38;14.98;;;18.50;99.90;;;;;;5033010;28;20207;-78
2022/08/20 08:20:43;;;;;;;17.15;15.65;;;18.60;99.90;;;;;;5028225;28;20710;-79
2022/08/20 08:23:13;;;;;;;16.38;14.77;;;18.60;99.90;;;;;;5029755;28;20181;-80
2022/08/20 08:25:41;;;;;;;15.63;14.25;;;18.60;99.90;;;;;;5029100;28;20184;-79
2022/08/20 08:28:09;;;;;;;14.55;13.35;;;18.50;99.90;;;;;;5032617;28;20246;-78
2022/08/20 08:30:36;;;;;;;16.42;14.98;;;18.50;99.90;;;;;;5039881;28;20220;-79
2022/08/20 08:35:46;;;;;;;18.52;16.70;;;19.00;99.90;;;;;;5020522;28;20263;-79
2022/08/20 08:38:12;;;;;;;17.58;15.98;;;19.10;99.90;;;;;;5029825;28;20283;-81
2022/08/20 08:40:38;;;;;;;21.20;19.25;;;19.30;99.90;;;;;;5028602;28;20711;-83
2022/08/20 08:43:06;;;;;;;21.83;19.63;;;19.30;99.90;;;;;;5027581;28;20192;-80
2022/08/20 08:45:44;;;;;;;22.05;19.95;;;19.40;99.90;;;;;;5031227;28;20188;-80
2022/08/20 08:48:16;;;;;;;21.40;19.38;;;19.40;99.90;;;;;;5035900;28;20208;-81
2022/08/20 08:50:45;;;;;;;17.27;15.70;;;19.50;99.90;;;;;;5031345;28;20622;-81
2022/08/20 08:53:20;;;;;;;19.25;17.45;;;19.50;99.90;;;;;;5037886;28;20188;-80
2022/08/20 08:55:46;;;;;;;18.75;17.20;;;19.50;99.90;;;;;;5039019;28;20168;-80
2022/08/20 08:58:11;;;;;;;21.00;18.77;;;19.50;99.90;;;;;;5048394;28;20188;-81
2022/08/20 09:00:37;;;;;;;23.08;20.77;;;19.50;99.90;;;;;;5037653;28;20189;-81
2022/08/20 09:03:09;;;;;;;21.15;19.05;;;19.50;99.90;;;;;;5039359;28;20181;-80
2022/08/20 09:05:50;;;;;;;19.70;17.80;;;19.70;99.90;;;;;;5026025;28;20183;-79
2022/08/20 09:08:23;;;;;;;22.50;20.13;;;19.80;99.90;;;;;;5039565;28;20201;-80
2022/08/20 09:10:49;;;;;;;19.98;18.17;;;19.90;99.90;;;;;;5045855;28;20195;-79
2022/08/20 09:13:14;;;;;;;22.00;20.00;;;20.00;99.90;;;;;;5040696;28;20192;-79
2022/08/20 09:15:40;;;;;;;19.98;18.20;;;20.10;99.90;;;;;;5043113;28;20188;-80
2022/08/20 09:18:05;;;;;;;21.77;19.75;;;20.00;99.90;;;;;;5032082;28;20579;-80
2022/08/20 09:20:31;;;;;;;21.95;19.83;;;20.00;99.90;;;;;;5027401;28;20181;-78
2022/08/20 09:22:57;;;;;;;23.60;21.33;;;20.00;99.90;;;;;;5033711;28;20728;-78
2022/08/20 09:25:23;;;;;;;24.42;22.20;;;20.00;99.90;;;;;;5028835;28;20189;-78
2022/08/20 09:27:49;;;;;;;24.35;22.05;;;19.90;99.90;;;;;;5025887;28;20229;-78
2022/08/20 09:30:15;;;;;;;21.90;19.90;;;19.70;99.90;;;;;;5025947;28;20259;-79
2022/08/20 09:32:41;;;;;;;23.70;21.40;;;19.70;99.90;;;;;;5030718;28;20172;-79
2022/08/20 09:35:08;;;;;;;25.60;23.35;;;19.60;99.90;;;;;;5025659;28;20203;-77
2022/08/20 09:37:34;;;;;;;27.15;24.60;;;19.40;99.90;;;;;;5033536;28;20200;-76
2022/08/20 09:40:00;;;;;;;26.58;23.98;;;19.40;99.90;;;;;;5042033;28;20180;-77
2022/08/20 09:42:28;;;;;;;27.75;25.05;;;19.30;99.90;;;;;;5044566;28;20179;-80
2022/08/20 09:44:55;;;;;;;24.83;22.42;;;19.20;99.90;;;;;;5042900;28;20547;-78
2022/08/20 09:47:21;;;;;;;26.25;23.55;;;19.20;99.90;;;;;;5037776;28;20743;-79
2022/08/20 09:49:47;;;;;;;29.27;26.48;;;19.10;99.90;;;;;;5039322;28;20204;-79
2022/08/20 09:52:19;;;;;;;28.98;26.13;;;19.00;99.90;;;;;;5043913;28;20179;-79
2022/08/20 09:54:44;;;;;;;31.10;27.85;;;19.00;99.90;;;;;;5041572;28;20222;-79
2022/08/20 09:57:11;;;;;;;28.55;25.75;;;19.00;99.90;;;;;;5048094;28;20192;-78
2022/08/20 09:59:37;;;;;;;30.05;26.88;;;19.00;99.90;;;;;;5028917;28;20655;-80
2022/08/20 10:02:03;;;;;;;31.05;27.95;;;18.90;99.90;;;;;;5039832;28;20650;-78
2022/08/20 10:04:28;;;;;;;28.92;26.13;;;18.90;99.90;;;;;;5032723;28;20288;-78
2022/08/20 10:06:55;;;;;;;29.10;26.20;;;18.90;99.90;;;;;;5025409;28;20475;-78
2022/08/20 10:09:21;;;;;;;28.40;25.23;;;18.80;99.90;;;;;;5025015;28;20196;-78
2022/08/20 10:11:46;;;;;;;33.42;29.92;;;18.70;99.90;;;;;;5040854;28;20193;-78
2022/08/20 10:14:12;;;;;;;32.58;29.20;;;18.60;99.90;;;;;;5044001;28;20183;-78
2022/08/20 10:16:38;;;;;;;31.08;27.70;;;18.60;99.90;;;;;;5039691;28;20305;-78
2022/08/20 10:19:04;;;;;;;33.03;29.42;;;18.60;99.90;;;;;;5048424;28;20631;-79
2022/08/20 10:21:31;;;;;;;32.95;29.42;;;18.50;99.90;;;;;;5041069;28;20215;-80
2022/08/20 10:23:57;;;;;;;34.20;30.70;;;18.50;99.90;;;;;;5038286;28;20179;-79
2022/08/20 10:26:24;;;;;;;33.92;28.40;;;18.40;99.90;;;;;;5049654;28;20698;-77
2022/08/20 10:28:50;;;;;;;35.10;31.42;;;18.40;99.90;;;;;;5018634;28;20182;-77
2022/08/20 10:31:15;;;;;;;37.20;32.20;;;18.30;99.90;;;;;;5023742;28;20587;-75
2022/08/20 10:33:41;;;;;;;37.03;29.70;;;18.20;99.90;;;;;;5021747;28;20185;-75
2022/08/20 10:36:08;;;;;;;43.85;35.65;;;18.20;99.90;;;;;;5024940;28;20185;-75
2022/08/20 10:38:34;;;;;;;43.15;34.15;;;18.20;99.90;;;;;;5021409;28;20264;-76
2022/08/20 10:41:00;;;;;;;39.72;33.00;;;18.10;99.90;;;;;;5028164;28;20330;-76
2022/08/20 10:43:25;;;;;;;45.63;35.70;;;18.20;99.90;;;;;;5032949;28;20168;-75
2022/08/20 10:45:51;;;;;;;43.78;35.15;;;18.10;99.90;;;;;;5042207;28;20716;-76
2022/08/20 10:48:16;;;;;;;48.28;38.22;;;18.10;99.90;;;;;;5039788;28;20200;-76
2022/08/20 10:50:42;;;;;;;43.22;33.58;;;18.10;99.90;;;;;;5035459;28;20699;-76
2022/08/20 10:53:08;;;;;;;47.40;37.47;;;18.20;99.90;;;;;;5042504;28;20168;-76
2022/08/20 10:55:33;;;;;;;51.70;37.63;;;18.20;99.90;;;;;;5046066;28;20168;-76
2022/08/20 10:57:59;;;;;;;44.13;35.97;;;18.30;99.90;;;;;;5040816;28;20199;-76
2022/08/20 11:00:25;;;;;;;39.13;34.78;;;18.30;99.90;;;;;;5019753;28;20189;-77
2022/08/20 11:02:51;;;;;;;42.35;35.50;;;18.30;99.90;;;;;;5025751;28;20208;-76
2022/08/20 11:05:17;;;;;;;37.60;33.70;;;18.30;99.90;;;;;;5018641;28;20185;-76
2022/08/20 11:07:43;;;;;;;34.67;31.10;;;18.20;99.90;;;;;;5015196;28;20561;-76
2022/08/20 11:10:10;;;;;;;38.78;32.60;;;18.30;99.90;;;;;;5020459;28;20204;-76
2022/08/20 11:12:36;;;;;;;33.85;30.35;;;18.40;99.90;;;;;;5017550;28;20193;-75
2022/08/20 11:15:02;;;;;;;37.97;31.80;;;18.40;99.90;;;;;;5017066;28;20231;-75
2022/08/20 11:17:32;;;;;;;36.15;30.70;;;18.50;99.90;;;;;;5012983;28;20267;-74
2022/08/20 11:19:58;;;;;;;41.60;33.53;;;18.40;99.90;;;;;;5017172;28;20174;-74
2022/08/20 11:22:25;;;;;;;34.17;30.63;;;18.40;99.90;;;;;;5014929;28;20181;-74
2022/08/20 11:24:51;;;;;;;34.08;30.30;;;18.40;99.90;;;;;;5016106;28;20613;-75
2022/08/20 11:27:23;;;;;;;36.40;30.33;;;18.40;99.90;;;;;;5012739;28;20224;-75
2022/08/20 11:29:48;;;;;;;39.08;31.42;;;18.50;99.90;;;;;;5016994;28;20216;-74
2022/08/20 11:32:14;;;;;;;34.67;28.85;;;18.60;99.90;;;;;;5016780;28;20181;-75
2022/08/20 11:34:40;;;;;;;36.20;29.08;;;18.50;99.90;;;;;;5017066;28;20219;-75
2022/08/20 11:37:06;;;;;;;38.80;32.40;;;18.40;99.90;;;;;;5025898;28;20334;-75
2022/08/20 11:39:31;;;;;;;36.60;32.70;;;18.40;99.90;;;;;;5015730;28;20216;-74
2022/08/20 11:41:57;;;;;;;37.63;32.50;;;18.40;99.90;;;;;;5019651;28;20180;-77
2022/08/20 11:44:22;;;;;;;33.67;30.27;;;18.50;99.90;;;;;;5034534;28;20176;-75
2022/08/20 11:46:48;;;;;;;34.67;30.00;;;18.50;99.90;;;;;;5041890;28;20200;-76
2022/08/20 11:49:14;;;;;;;34.30;30.70;;;18.70;99.90;;;;;;5043972;28;20206;-78
2022/08/20 11:51:40;;;;;;;32.40;29.10;;;18.80;99.90;;;;;;5040961;28;20189;-76
2022/08/20 11:54:05;;;;;;;27.58;25.02;;;18.90;99.90;;;;;;5040107;28;20173;-76
2022/08/20 11:56:31;;;;;;;30.02;27.08;;;19.00;99.90;;;;;;5017912;28;20217;-76
2022/08/20 11:58:57;;;;;;;28.48;25.73;;;19.10;99.90;;;;;;5014482;28;20191;-76
2022/08/20 12:01:23;;;;;;;28.83;25.73;;;19.20;99.90;;;;;;5017774;28;20636;-76
2022/08/20 12:03:49;;;;;;;29.73;26.95;;;19.40;99.90;;;;;;5012225;28;20193;-76
2022/08/20 12:06:14;;;;;;;25.02;22.65;;;19.50;99.90;;;;;;5020874;28;20265;-75
2022/08/20 12:08:40;;;;;;;29.98;27.08;;;19.40;99.90;;;;;;5013384;28;20177;-77
2022/08/20 12:11:05;;;;;;;28.50;25.80;;;19.40;99.90;;;;;;5029798;28;20331;-76
2022/08/20 12:13:34;;;;;;;28.33;25.33;;;19.40;99.90;;;;;;5030373;28;20224;-75
2022/08/20 12:16:00;;;;;;;29.48;26.48;;;19.40;99.90;;;;;;5015305;28;20193;-77
2022/08/20 12:18:26;;;;;;;29.83;26.83;;;19.50;99.90;;;;;;5016583;28;20692;-78
2022/08/20 12:20:52;;;;;;;30.85;27.65;;;19.60;99.90;;;;;;5020393;28;20200;-79
2022/08/20 12:23:17;;;;;;;30.90;27.60;;;19.70;99.90;;;;;;5012407;28;20708;-78
2022/08/20 12:25:43;;;;;;;29.85;26.88;;;19.80;99.90;;;;;;5020012;28;20268;-78
2022/08/20 12:28:12;;;;;;;30.83;27.50;;;19.80;99.90;;;;;;5017976;28;20204;-78
2022/08/20 12:30:38;;;;;;;30.45;27.45;;;19.80;99.90;;;;;;5019308;28;20213;-78
2022/08/20 12:33:04;;;;;;;30.23;27.27;;;19.90;99.90;;;;;;5022996;28;20206;-78
2022/08/20 12:35:30;;;;;;;30.92;27.83;;;20.00;99.90;;;;;;5024206;28;20206;-78
2022/08/20 12:37:56;;;;;;;29.75;26.98;;;20.20;99.90;;;;;;5012977;28;20200;-77